createdAt,value
2023-08-24T00:02:01.011Z,97840.00
2023-08-24T00:04:27.987Z,97857.00
2023-08-24T00:06:55.573Z,97860.00
2023-08-24T00:09:22.965Z,97841.00
2023-08-24T00:11:49.911Z,97846.00
2023-08-24T00:14:16.826Z,97861.00
2023-08-24T00:16:43.806Z,97874.00
2023-08-24T00:19:10.789Z,97870.00
2023-08-24T00:21:37.680Z,97878.00
2023-08-24T00:24:04.622Z,97855.00
2023-08-24T00:26:31.755Z,97853.00
2023-08-24T00:28:58.647Z,97864.00
2023-08-24T00:31:25.597Z,97848.00
2023-08-24T00:33:52.579Z,97855.00
2023-08-24T00:36:19.537Z,97836.00
2023-08-24T00:38:51.800Z,97839.00
2023-08-24T00:41:18.986Z,97849.00
2023-08-24T00:43:46.085Z,97852.00
2023-08-24T00:46:16.088Z,97844.00
2023-08-24T00:48:43.652Z,97845.00
2023-08-24T00:51:11.937Z,97840.00
2023-08-24T00:53:39.724Z,97837.00
2023-08-24T00:56:07.384Z,97837.00
2023-08-24T00:58:35.282Z,97828.00
2023-08-24T01:01:02.768Z,97829.00
2023-08-24T01:03:29.776Z,97839.00
2023-08-24T01:05:57.099Z,97806.00
2023-08-24T01:08:25.448Z,97836.00
2023-08-24T01:11:35.194Z,97832.00
2023-08-24T01:14:10.925Z,97842.00
2023-08-24T01:16:44.306Z,97830.00
2023-08-24T01:19:40.179Z,97832.00
2023-08-24T01:22:32.225Z,97846.00
2023-08-24T01:25:18.189Z,97832.00
2023-08-24T01:27:49.066Z,97831.00
2023-08-24T01:30:20.983Z,97810.00
2023-08-24T01:32:48.030Z,97839.00
2023-08-24T01:35:14.898Z,97826.00
2023-08-24T01:37:42.913Z,97810.00
2023-08-24T01:40:40.591Z,97839.00
2023-08-24T01:43:11.112Z,97807.00
2023-08-24T01:45:41.065Z,97804.00
2023-08-24T01:48:10.176Z,97806.00
2023-08-24T01:50:38.532Z,97804.00
2023-08-24T01:53:06.130Z,97797.00
2023-08-24T01:55:33.024Z,97796.00
2023-08-24T01:57:59.968Z,97806.00
2023-08-24T02:00:27.078Z,97790.00
2023-08-24T02:02:54.119Z,97799.00
2023-08-24T02:05:21.167Z,97820.00
2023-08-24T02:07:52.557Z,97805.00
2023-08-24T02:10:19.685Z,97811.00
2023-08-24T02:12:46.720Z,97794.00
2023-08-24T02:15:13.677Z,97784.00
2023-08-24T02:17:40.581Z,97801.00
2023-08-24T02:20:09.770Z,97796.00
2023-08-24T02:22:36.683Z,97800.00
2023-08-24T02:25:05.964Z,97784.00
2023-08-24T02:27:34.000Z,97803.00
2023-08-24T02:30:01.640Z,97782.00
2023-08-24T02:32:28.649Z,97783.00
2023-08-24T02:34:55.675Z,97782.00
2023-08-24T02:37:22.682Z,97777.00
2023-08-24T02:39:49.621Z,97781.00
2023-08-24T02:42:17.004Z,97786.00
2023-08-24T02:44:44.176Z,97770.00
2023-08-24T02:47:12.313Z,97759.00
2023-08-24T02:49:39.803Z,97772.00
2023-08-24T02:52:06.776Z,97757.00
2023-08-24T02:54:33.793Z,97770.00
2023-08-24T02:57:01.345Z,97765.00
2023-08-24T02:59:28.183Z,97780.00
2023-08-24T03:01:55.402Z,97776.00
2023-08-24T03:04:22.607Z,97771.00
2023-08-24T03:06:52.336Z,97756.00
2023-08-24T03:09:19.916Z,97768.00
2023-08-24T03:11:46.927Z,97775.00
2023-08-24T03:14:13.844Z,97779.00
2023-08-24T03:16:40.945Z,97782.00
2023-08-24T03:19:08.359Z,97781.00
2023-08-24T03:21:35.435Z,97767.00
2023-08-24T03:24:05.403Z,97769.00
2023-08-24T03:26:32.350Z,97755.00
2023-08-24T03:28:59.325Z,97771.00
2023-08-24T03:31:27.315Z,97787.00
2023-08-24T03:33:54.875Z,97758.00
2023-08-24T03:36:21.951Z,97777.00
2023-08-24T03:38:48.836Z,97772.00
2023-08-24T03:41:16.122Z,97756.00
2023-08-24T03:43:43.033Z,97754.00
2023-08-24T03:46:10.907Z,97747.00
2023-08-24T03:48:41.312Z,97773.00
2023-08-24T03:51:08.253Z,97755.00
2023-08-24T03:53:37.097Z,97742.00
2023-08-24T03:56:04.266Z,97757.00
2023-08-24T03:58:31.162Z,97754.00
2023-08-24T04:00:58.714Z,97746.00
2023-08-24T04:03:26.236Z,97766.00
2023-08-24T04:05:53.147Z,97749.00
2023-08-24T04:08:20.001Z,97748.00
2023-08-24T04:10:46.941Z,97736.00
2023-08-24T04:13:13.766Z,97765.00
2023-08-24T04:15:41.150Z,97771.00
2023-08-24T04:18:08.193Z,97774.00
2023-08-24T04:20:35.320Z,97782.00
2023-08-24T04:23:04.962Z,97788.00
2023-08-24T04:25:33.664Z,97782.00
2023-08-24T04:28:00.510Z,97798.00
2023-08-24T04:30:27.457Z,97807.00
2023-08-24T04:32:54.786Z,97821.00
2023-08-24T04:35:21.729Z,97816.00
2023-08-24T04:37:48.991Z,97808.00
2023-08-24T04:40:16.244Z,97803.00
2023-08-24T04:42:43.121Z,97809.00
2023-08-24T04:45:10.769Z,97798.00
2023-08-24T04:47:37.698Z,97804.00
2023-08-24T04:50:06.019Z,97798.00
2023-08-24T04:52:32.909Z,97801.00
2023-08-24T04:54:59.931Z,97807.00
2023-08-24T04:57:26.859Z,97786.00
2023-08-24T04:59:53.902Z,97810.00
2023-08-24T05:02:20.822Z,97802.00
2023-08-24T05:04:49.681Z,97797.00
2023-08-24T05:07:16.635Z,97802.00
2023-08-24T05:09:43.507Z,97808.00
2023-08-24T05:12:10.423Z,97793.00
2023-08-24T05:14:37.273Z,97800.00
2023-08-24T05:17:04.134Z,97813.00
2023-08-24T05:19:31.511Z,97802.00
2023-08-24T05:21:58.349Z,97810.00
2023-08-24T05:24:25.209Z,97818.00
2023-08-24T05:26:52.124Z,97807.00
2023-08-24T05:29:18.982Z,97809.00
2023-08-24T05:31:45.822Z,97798.00
2023-08-24T05:34:12.701Z,97814.00
2023-08-24T05:36:39.840Z,97833.00
2023-08-24T05:39:07.064Z,97822.00
2023-08-24T05:41:34.667Z,97808.00
2023-08-24T05:44:01.782Z,97800.00
2023-08-24T05:46:30.175Z,97799.00
2023-08-24T05:48:59.769Z,97801.00
2023-08-24T05:51:26.819Z,97783.00
2023-08-24T05:53:56.543Z,97788.00
2023-08-24T05:56:23.795Z,97792.00
2023-08-24T05:58:51.144Z,97795.00
2023-08-24T06:01:18.309Z,97762.00
2023-08-24T06:03:45.248Z,97758.00
2023-08-24T06:06:12.550Z,97747.00
2023-08-24T06:08:39.518Z,97729.00
2023-08-24T06:11:06.885Z,97723.00
2023-08-24T06:13:34.122Z,97719.00
2023-08-24T06:16:01.337Z,97692.00
2023-08-24T06:18:28.637Z,97688.00
2023-08-24T06:20:55.794Z,97701.00
2023-08-24T06:23:22.840Z,97705.00
2023-08-24T06:25:50.388Z,97695.00
2023-08-24T06:28:17.222Z,97697.00
2023-08-24T06:30:44.568Z,97691.00
2023-08-24T06:33:12.103Z,97682.00
2023-08-24T06:35:39.180Z,97702.00
2023-08-24T06:38:07.020Z,97686.00
2023-08-24T06:40:33.975Z,97672.00
2023-08-24T06:43:00.892Z,97681.00
2023-08-24T06:45:27.771Z,97665.00
2023-08-24T06:47:55.514Z,97675.00
2023-08-24T06:50:22.499Z,97669.00
2023-08-24T06:52:49.688Z,97675.00
2023-08-24T06:55:16.911Z,97655.00
2023-08-24T06:57:50.231Z,97643.00
2023-08-24T07:00:21.760Z,97642.00
2023-08-24T07:02:51.767Z,97639.00
2023-08-24T07:05:21.817Z,97631.00
2023-08-24T07:07:51.457Z,97639.00
2023-08-24T07:10:18.881Z,97650.00
2023-08-24T07:12:46.498Z,97633.00
2023-08-24T07:15:14.103Z,97629.00
2023-08-24T07:17:41.755Z,97638.00
2023-08-24T07:20:09.551Z,97620.00
2023-08-24T07:22:36.542Z,97628.00
2023-08-24T07:25:06.972Z,97623.00
2023-08-24T07:27:35.465Z,97617.00
2023-08-24T07:30:26.361Z,97611.00
2023-08-24T07:32:57.593Z,97618.00
2023-08-24T07:35:25.830Z,97591.00
2023-08-24T07:37:53.456Z,97593.00
2023-08-24T07:40:20.788Z,97592.00
2023-08-24T07:42:54.136Z,97593.00
2023-08-24T07:45:22.065Z,97590.00
2023-08-24T07:47:49.539Z,97592.00
2023-08-24T07:50:16.980Z,97599.00
2023-08-24T07:52:43.978Z,97601.00
2023-08-24T07:55:11.025Z,97596.00
2023-08-24T07:57:38.869Z,97596.00
2023-08-24T08:00:09.397Z,97574.00
2023-08-24T08:02:42.570Z,97597.00
2023-08-24T08:05:11.639Z,97581.00
2023-08-24T08:07:39.074Z,97577.00
2023-08-24T08:10:07.614Z,97580.00
2023-08-24T08:12:35.351Z,97580.00
2023-08-24T08:15:02.611Z,97590.00
2023-08-24T08:17:31.334Z,97589.00
2023-08-24T08:19:58.640Z,97592.00
2023-08-24T08:22:26.857Z,97588.00
2023-08-24T08:24:55.243Z,97606.00
2023-08-24T08:27:22.692Z,97589.00
2023-08-24T08:29:50.848Z,97599.00
2023-08-24T08:32:17.785Z,97589.00
2023-08-24T08:34:44.639Z,97580.00
2023-08-24T08:37:11.888Z,97588.00
2023-08-24T08:39:38.771Z,97583.00
2023-08-24T08:42:05.821Z,97595.00
2023-08-24T08:44:34.233Z,97586.00
2023-08-24T08:47:01.754Z,97576.00
2023-08-24T08:49:32.361Z,97567.00
2023-08-24T08:51:59.234Z,97574.00
2023-08-24T08:54:27.059Z,97562.00
2023-08-24T08:56:54.620Z,97559.00
2023-08-24T08:59:24.134Z,97551.00
2023-08-24T09:01:52.366Z,97536.00
2023-08-24T09:04:19.608Z,97556.00
2023-08-24T09:06:46.773Z,97534.00
2023-08-24T09:09:14.900Z,97533.00
2023-08-24T09:11:43.235Z,97525.00
2023-08-24T09:14:10.149Z,97540.00
2023-08-24T09:16:37.076Z,97534.00
2023-08-24T09:19:08.393Z,97524.00
2023-08-24T09:21:39.731Z,97517.00
2023-08-24T09:24:07.927Z,97510.00
2023-08-24T09:26:37.999Z,97502.00
2023-08-24T09:29:17.300Z,97511.00
2023-08-24T09:31:47.484Z,97503.00
2023-08-24T09:34:14.675Z,97480.00
2023-08-24T09:36:41.999Z,97494.00
2023-08-24T09:39:09.259Z,97478.00
2023-08-24T09:41:44.892Z,97466.00
2023-08-24T09:44:15.633Z,97459.00
2023-08-24T09:46:43.950Z,97445.00
2023-08-24T09:49:12.749Z,97437.00
2023-08-24T09:51:42.628Z,97441.00
2023-08-24T09:54:11.492Z,97428.00
2023-08-24T09:56:41.003Z,97436.00
2023-08-24T09:59:25.575Z,97442.00
2023-08-24T10:01:56.280Z,97438.00
2023-08-24T10:04:25.834Z,97424.00
2023-08-24T10:07:21.547Z,97435.00
2023-08-24T10:10:04.665Z,97436.00
2023-08-24T10:12:41.314Z,97447.00
2023-08-24T10:15:12.064Z,97442.00
2023-08-24T10:17:40.983Z,97452.00
2023-08-24T10:20:10.666Z,97452.00
2023-08-24T10:22:41.061Z,97455.00
2023-08-24T10:25:10.163Z,97476.00
2023-08-24T10:27:38.035Z,97462.00
2023-08-24T10:30:05.640Z,97457.00
2023-08-24T10:32:33.419Z,97477.00
2023-08-24T10:35:00.656Z,97464.00
2023-08-24T10:37:29.126Z,97461.00
2023-08-24T10:39:56.278Z,97470.00
2023-08-24T10:42:23.257Z,97479.00
2023-08-24T10:44:53.386Z,97475.00
2023-08-24T10:47:24.442Z,97483.00
2023-08-24T10:49:57.462Z,97493.00
2023-08-24T10:52:34.570Z,97481.00
2023-08-24T10:55:23.136Z,97477.00
2023-08-24T10:57:59.112Z,97484.00
2023-08-24T11:00:31.192Z,97476.00
2023-08-24T11:03:01.418Z,97480.00
2023-08-24T11:05:33.221Z,97471.00
2023-08-24T11:08:03.425Z,97478.00
2023-08-24T11:10:47.809Z,97474.00
2023-08-24T11:13:20.627Z,97475.00
2023-08-24T11:16:00.138Z,97463.00
2023-08-24T11:18:30.114Z,97459.00
2023-08-24T11:21:06.252Z,97466.00
2023-08-24T11:23:34.201Z,97477.00
2023-08-24T11:26:02.480Z,97454.00
2023-08-24T11:28:32.247Z,97462.00
2023-08-24T11:31:00.445Z,97469.00
2023-08-24T11:33:33.488Z,97467.00
2023-08-24T11:36:04.059Z,97468.00
2023-08-24T11:38:42.804Z,97471.00
2023-08-24T11:41:19.308Z,97452.00
2023-08-24T11:43:49.133Z,97455.00
2023-08-24T11:46:20.223Z,97424.00
2023-08-24T11:48:47.480Z,97437.00
2023-08-24T11:51:16.184Z,97441.00
2023-08-24T11:53:48.093Z,97434.00
2023-08-24T11:56:18.969Z,97423.00
2023-08-24T11:58:53.811Z,97432.00
2023-08-24T12:01:21.476Z,97425.00
2023-08-24T12:03:48.669Z,97438.00
2023-08-24T12:06:17.864Z,97439.00
2023-08-24T12:08:48.304Z,97448.00
2023-08-24T12:11:18.819Z,97441.00
2023-08-24T12:13:51.133Z,97448.00
2023-08-24T12:16:20.006Z,97430.00
2023-08-24T12:19:00.730Z,97456.00
2023-08-24T12:21:28.935Z,97451.00
2023-08-24T12:24:06.714Z,97462.00
2023-08-24T12:26:35.870Z,97480.00
2023-08-24T12:29:06.606Z,97454.00
2023-08-24T12:31:35.174Z,97486.00
2023-08-24T12:34:04.409Z,97487.00
2023-08-24T12:36:42.487Z,97469.00
2023-08-24T12:39:11.659Z,97461.00
2023-08-24T12:41:38.920Z,97475.00
2023-08-24T12:44:06.815Z,97481.00
2023-08-24T12:46:38.685Z,97476.00
2023-08-24T12:49:05.769Z,97457.00
2023-08-24T12:51:32.707Z,97451.00
2023-08-24T12:53:59.680Z,97448.00
2023-08-24T12:56:29.160Z,97467.00
2023-08-24T12:58:56.204Z,97468.00
2023-08-24T13:01:23.181Z,97468.00
2023-08-24T13:03:50.230Z,97482.00
2023-08-24T13:08:47.357Z,97458.00
2023-08-24T13:11:14.343Z,97461.00
2023-08-24T13:13:41.855Z,97442.00
2023-08-24T13:16:08.926Z,97437.00
2023-08-24T13:18:35.914Z,97439.00
2023-08-24T13:21:02.906Z,97435.00
2023-08-24T13:23:29.810Z,97443.00
2023-08-24T13:26:02.427Z,97437.00
2023-08-24T13:28:30.617Z,97413.00
2023-08-24T13:30:57.762Z,97405.00
2023-08-24T13:33:24.762Z,97404.00
2023-08-24T13:35:51.689Z,97379.00
2023-08-24T13:38:19.010Z,97365.00
2023-08-24T13:40:47.502Z,97366.00
2023-08-24T13:43:17.241Z,97356.00
2023-08-24T13:45:45.652Z,97359.00
2023-08-24T13:48:12.601Z,97334.00
2023-08-24T13:50:39.506Z,97333.00
2023-08-24T13:53:06.880Z,97330.00
2023-08-24T13:55:33.882Z,97326.00
2023-08-24T13:58:00.809Z,97320.00
2023-08-24T14:00:27.789Z,97320.00
2023-08-24T14:02:55.338Z,97320.00
2023-08-24T14:05:22.898Z,97323.00
2023-08-24T14:07:50.075Z,97309.00
2023-08-24T14:10:17.250Z,97314.00
2023-08-24T14:12:44.156Z,97321.00
2023-08-24T14:15:12.226Z,97304.00
2023-08-24T14:17:41.966Z,97288.00
2023-08-24T14:20:10.320Z,97298.00
2023-08-24T14:22:40.060Z,97265.00
2023-08-24T14:25:07.565Z,97245.00
2023-08-24T14:27:34.851Z,97234.00
2023-08-24T14:30:01.757Z,97246.00
2023-08-24T14:32:28.739Z,97268.00
2023-08-24T14:34:55.671Z,97317.00
2023-08-24T14:37:22.606Z,97336.00
2023-08-24T14:39:49.603Z,97328.00
2023-08-24T14:42:16.822Z,97334.00
2023-08-24T14:44:43.722Z,97336.00
2023-08-24T14:47:10.736Z,97330.00
2023-08-24T14:49:37.696Z,97312.00
2023-08-24T14:52:04.851Z,97333.00
2023-08-24T14:54:31.889Z,97316.00
2023-08-24T14:56:59.977Z,97340.00
2023-08-24T14:59:26.946Z,97344.00
2023-08-24T15:01:54.599Z,97373.00
2023-08-24T15:04:21.550Z,97374.00
2023-08-24T15:06:48.419Z,97365.00
2023-08-24T15:09:15.322Z,97362.00
2023-08-24T15:11:42.375Z,97357.00
2023-08-24T15:14:09.659Z,97354.00
2023-08-24T15:16:36.623Z,97363.00
2023-08-24T15:19:04.016Z,97371.00
2023-08-24T15:21:30.943Z,97368.00
2023-08-24T15:23:58.003Z,97365.00
2023-08-24T15:26:24.994Z,97367.00
2023-08-24T15:29:19.475Z,97383.00
2023-08-24T15:31:46.739Z,97384.00
2023-08-24T15:34:13.655Z,97374.00
2023-08-24T15:36:40.951Z,97375.00
2023-08-24T15:39:07.969Z,97383.00
2023-08-24T15:41:34.874Z,97384.00
2023-08-24T15:44:01.802Z,97385.00
2023-08-24T15:46:28.833Z,97395.00
2023-08-24T15:48:57.368Z,97397.00
2023-08-24T15:51:24.932Z,97405.00
2023-08-24T15:53:52.215Z,97410.00
2023-08-24T15:56:20.321Z,97420.00
2023-08-24T15:58:47.214Z,97426.00
2023-08-24T16:01:14.200Z,97422.00
2023-08-24T16:03:42.982Z,97424.00
2023-08-24T16:06:10.575Z,97418.00
2023-08-24T16:08:37.499Z,97401.00
2023-08-24T16:11:04.373Z,97406.00
2023-08-24T16:13:31.267Z,97398.00
2023-08-24T16:15:58.207Z,97402.00
2023-08-24T16:18:26.333Z,97385.00
2023-08-24T16:20:54.092Z,97370.00
2023-08-24T16:23:21.323Z,97361.00
2023-08-24T16:25:49.761Z,97342.00
2023-08-24T16:28:16.852Z,97335.00
2023-08-24T16:30:48.716Z,97328.00
2023-08-24T16:33:18.629Z,97318.00
2023-08-24T16:35:46.621Z,97312.00
2023-08-24T16:38:14.270Z,97298.00
2023-08-24T16:40:43.415Z,97295.00
2023-08-24T16:43:10.565Z,97280.00
2023-08-24T16:45:39.446Z,97262.00
2023-08-24T16:48:06.814Z,97255.00
2023-08-24T16:50:33.894Z,97245.00
2023-08-24T16:53:00.838Z,97234.00
2023-08-24T16:55:27.788Z,97219.00
2023-08-24T16:57:57.642Z,97195.00
2023-08-24T17:00:25.503Z,97185.00
2023-08-24T17:02:52.527Z,97180.00
2023-08-24T17:05:21.647Z,97187.00
2023-08-24T17:08:09.985Z,97197.00
2023-08-24T17:10:40.182Z,97195.00
2023-08-24T17:13:07.483Z,97195.00
2023-08-24T17:15:34.669Z,97199.00
2023-08-24T17:18:02.275Z,97202.00
2023-08-24T17:20:29.884Z,97198.00
2023-08-24T17:22:56.936Z,97205.00
2023-08-24T17:25:23.875Z,97181.00
2023-08-24T17:27:51.920Z,97189.00
2023-08-24T17:30:19.723Z,97185.00
2023-08-24T17:32:46.868Z,97175.00
2023-08-24T17:35:14.030Z,97172.00
2023-08-24T17:37:41.064Z,97168.00
2023-08-24T17:40:11.231Z,97160.00
2023-08-24T17:42:40.372Z,97161.00
2023-08-24T17:45:09.273Z,97154.00
2023-08-24T17:47:36.328Z,97161.00
2023-08-24T17:50:05.744Z,97182.00
2023-08-24T17:52:33.752Z,97173.00
2023-08-24T17:55:05.684Z,97170.00
2023-08-24T17:57:32.754Z,97169.00
2023-08-24T18:00:02.247Z,97155.00
2023-08-24T18:02:33.721Z,97150.00
2023-08-24T18:05:00.821Z,97126.00
2023-08-24T18:07:27.820Z,97106.00
2023-08-24T18:09:55.723Z,97095.00
2023-08-24T18:12:24.621Z,97105.00
2023-08-24T18:14:51.573Z,97105.00
2023-08-24T18:17:18.600Z,97114.00
2023-08-24T18:19:45.481Z,97114.00
2023-08-24T18:22:12.448Z,97096.00
2023-08-24T18:24:39.391Z,97121.00
2023-08-24T18:27:06.237Z,97109.00
2023-08-24T18:29:34.129Z,97119.00
2023-08-24T18:32:01.071Z,97124.00
2023-08-24T18:34:28.143Z,97136.00
2023-08-24T18:36:55.044Z,97145.00
2023-08-24T18:39:22.103Z,97147.00
2023-08-24T18:41:50.909Z,97134.00
2023-08-24T18:44:18.938Z,97130.00
2023-08-24T18:46:47.895Z,97138.00
2023-08-24T18:49:16.754Z,97142.00
2023-08-24T18:51:43.613Z,97126.00
2023-08-24T18:54:10.505Z,97145.00
2023-08-24T18:56:37.381Z,97144.00
2023-08-24T18:59:04.271Z,97147.00
2023-08-24T19:01:34.721Z,97131.00
2023-08-24T19:04:02.222Z,97131.00
2023-08-24T19:06:35.146Z,97125.00
2023-08-24T19:09:08.588Z,97113.00
2023-08-24T19:11:35.597Z,97100.00
2023-08-24T19:14:02.580Z,97113.00
2023-08-24T19:16:29.588Z,97107.00
2023-08-24T19:18:56.505Z,97134.00
2023-08-24T19:21:27.003Z,97123.00
2023-08-24T19:23:53.935Z,97093.00
2023-08-24T19:26:20.977Z,97118.00
2023-08-24T19:28:47.882Z,97116.00
2023-08-24T19:31:16.352Z,97098.00
2023-08-24T19:33:43.269Z,97097.00
2023-08-24T19:36:10.147Z,97095.00
2023-08-24T19:38:37.080Z,97087.00
2023-08-24T19:41:04.181Z,97083.00
2023-08-24T19:43:31.114Z,97086.00
2023-08-24T19:45:58.039Z,97083.00
2023-08-24T19:48:25.101Z,97080.00
2023-08-24T19:50:52.291Z,97060.00
2023-08-24T19:53:20.523Z,97068.00
2023-08-24T19:55:47.512Z,97079.00
2023-08-24T19:58:14.485Z,97072.00
2023-08-24T20:00:42.839Z,97076.00
2023-08-24T20:03:12.509Z,97082.00
2023-08-24T20:05:39.562Z,97084.00
2023-08-24T20:08:06.618Z,97075.00
2023-08-24T20:10:33.557Z,97074.00
2023-08-24T20:13:00.438Z,97083.00
2023-08-24T20:15:27.293Z,97085.00
2023-08-24T20:17:54.655Z,97089.00
2023-08-24T20:20:23.238Z,97094.00
2023-08-24T20:22:52.451Z,97105.00
2023-08-24T20:25:19.796Z,97101.00
2023-08-24T20:27:46.666Z,97104.00
2023-08-24T20:30:13.863Z,97099.00
2023-08-24T20:32:40.892Z,97110.00
2023-08-24T20:35:08.047Z,97108.00
2023-08-24T20:37:34.870Z,97118.00
2023-08-24T20:40:01.810Z,97123.00
2023-08-24T20:42:28.845Z,97118.00
2023-08-24T20:44:56.030Z,97114.00
2023-08-24T20:47:23.623Z,97124.00
2023-08-24T20:49:52.500Z,97113.00
2023-08-24T20:52:22.012Z,97109.00
2023-08-24T20:54:52.270Z,97108.00
2023-08-24T20:57:19.434Z,97116.00
2023-08-24T20:59:46.753Z,97109.00
2023-08-24T21:02:13.865Z,97113.00
2023-08-24T21:04:41.039Z,97101.00
2023-08-24T21:07:08.032Z,97104.00
2023-08-24T21:09:35.036Z,97098.00
2023-08-24T21:12:01.989Z,97110.00
2023-08-24T21:14:28.972Z,97100.00
2023-08-24T21:16:55.934Z,97103.00
2023-08-24T21:19:22.919Z,97106.00
2023-08-24T21:21:49.840Z,97104.00
2023-08-24T21:24:16.874Z,97108.00
2023-08-24T21:26:43.790Z,97096.00
2023-08-24T21:29:10.725Z,97092.00
2023-08-24T21:31:37.742Z,97097.00
2023-08-24T21:34:04.679Z,97100.00
2023-08-24T21:36:31.658Z,97118.00
2023-08-24T21:38:58.564Z,97109.00
2023-08-24T21:41:25.486Z,97120.00
2023-08-24T21:43:52.341Z,97123.00
2023-08-24T21:46:21.870Z,97128.00
2023-08-24T21:48:48.918Z,97126.00
2023-08-24T21:51:15.871Z,97128.00
2023-08-24T21:53:42.922Z,97141.00
2023-08-24T21:56:09.886Z,97136.00
2023-08-24T21:58:36.853Z,97149.00
2023-08-24T22:01:06.672Z,97141.00
2023-08-24T22:03:35.834Z,97164.00
2023-08-24T22:06:03.944Z,97157.00
2023-08-24T22:08:31.736Z,97157.00
2023-08-24T22:10:59.007Z,97161.00
2023-08-24T22:13:27.076Z,97168.00
2023-08-24T22:15:55.212Z,97152.00
2023-08-24T22:18:22.863Z,97149.00
2023-08-24T22:20:50.102Z,97148.00
2023-08-24T22:23:17.856Z,97143.00
2023-08-24T22:25:45.151Z,97147.00
2023-08-24T22:28:14.133Z,97149.00
2023-08-24T22:30:42.129Z,97144.00
2023-08-24T22:33:09.095Z,97135.00
2023-08-24T22:35:36.003Z,97127.00
2023-08-24T22:38:03.835Z,97121.00
2023-08-24T22:40:31.027Z,97131.00
2023-08-24T22:42:57.975Z,97147.00
2023-08-24T22:45:37.153Z,97146.00
2023-08-24T22:48:05.432Z,97129.00
2023-08-24T22:50:32.971Z,97141.00
2023-08-24T22:53:00.357Z,97155.00
2023-08-24T22:55:27.362Z,97149.00
2023-08-24T22:57:54.471Z,97179.00
2023-08-24T23:00:22.385Z,97171.00
2023-08-24T23:02:49.496Z,97184.00
2023-08-24T23:05:17.052Z,97180.00
2023-08-24T23:07:45.272Z,97175.00
2023-08-24T23:10:12.410Z,97177.00
2023-08-24T23:12:39.515Z,97185.00
2023-08-24T23:15:08.104Z,97177.00
2023-08-24T23:17:35.297Z,97174.00
2023-08-24T23:20:08.079Z,97172.00
2023-08-24T23:22:35.593Z,97176.00
2023-08-24T23:25:06.648Z,97181.00
2023-08-24T23:27:34.340Z,97168.00
2023-08-24T23:30:04.688Z,97167.00
2023-08-24T23:32:34.462Z,97153.00
2023-08-24T23:35:01.345Z,97147.00
2023-08-24T23:37:28.256Z,97149.00
2023-08-24T23:39:55.127Z,97138.00
2023-08-24T23:42:22.889Z,97135.00
2023-08-24T23:44:50.340Z,97136.00
2023-08-24T23:47:17.386Z,97140.00
2023-08-24T23:49:44.407Z,97132.00
2023-08-24T23:52:11.290Z,97133.00
2023-08-24T23:54:38.161Z,97125.00
2023-08-24T23:57:05.344Z,97137.00
2023-08-24T23:59:32.537Z,97134.00
